METAR Data
IDs: Format: Raw Decoded Include TAF

Data at: 0832 UTC 03 Aug 2021

KDVO 021930Z AUTO 00000KT 10SM CLR 26/11 A3009 RMK AO2
KDVO 021915Z AUTO VRB04KT 10SM CLR 25/10 A3009 RMK AO2
KDVO 021855Z AUTO VRB04KT 10SM CLR 25/11 A3009 RMK AO2
KDVO 021835Z AUTO VRB06KT 10SM CLR 24/11 A3009 RMK AO2
KDVO 021815Z AUTO VRB03KT 10SM CLR 23/11 A3010 RMK AO2
KDVO 021755Z AUTO 34009KT 10SM CLR 23/11 A3010 RMK AO2
KDVO 021735Z AUTO 00000G12KT 10SM CLR 22/11 A3011 RMK AO2
KDVO 021715Z AUTO 31007KT 280V340 10SM CLR 21/11 A3011 RMK AO2
KDVO 021655Z AUTO 33007KT 10SM CLR 20/11 A3011 RMK AO2
KDVO 021635Z AUTO 34009KT 10SM CLR 20/11 A3011 RMK AO2
KDVO 021615Z AUTO 33009KT 10SM CLR 19/11 A3012 RMK AO2
KDVO 021555Z AUTO 35008KT 10SM FEW023 19/11 A3012 RMK AO2
KDVO 021535Z AUTO 34007KT 10SM FEW022 18/11 A3012 RMK AO2
KDVO 021515Z AUTO 35005KT 10SM FEW021 17/11 A3012 RMK AO2
KDVO 021455Z AUTO 00000KT 10SM CLR 16/11 A3012 RMK AO2
KDVO 021435Z AUTO 00000KT 10SM CLR 16/12 A3012 RMK AO2
KDVO 021415Z AUTO 00000KT 10SM CLR 14/11 A3011 RMK AO2
KDVO 021355Z AUTO 00000KT 10SM CLR 12/11 A3011 RMK AO2
KDVO 021335Z AUTO 00000KT 10SM CLR 12/10 A3010 RMK AO2
KDVO 021315Z AUTO 00000KT 10SM CLR 11/10 A3010 RMK AO2
KDVO 021255Z AUTO 00000KT 10SM CLR 11/10 A3009 RMK AO2
KDVO 021235Z AUTO 00000KT 10SM CLR 11/10 A3009 RMK AO2
KDVO 021215Z AUTO 00000KT 10SM CLR 11/10 A3008 RMK AO2
KDVO 021155Z AUTO 00000KT 10SM CLR 12/11 A3008 RMK AO2
KDVO 021135Z AUTO 00000KT 10SM CLR 11/10 A3008 RMK AO2
KDVO 021115Z AUTO 00000KT 10SM CLR 12/10 A3008 RMK AO2
KDVO 021055Z AUTO 00000KT 10SM CLR 13/11 A3007 RMK AO2
KDVO 021035Z AUTO 00000KT 10SM CLR 12/10 A3007 RMK AO2
KDVO 021015Z AUTO 00000KT 10SM CLR 11/09 A3008 RMK AO2
KDVO 020955Z AUTO 00000KT 10SM FEW020 12/10 A3008 RMK AO2
KDVO 020935Z AUTO 00000KT 10SM FEW020 12/11 A3008 RMK AO2
KDVO 020915Z AUTO 00000KT 10SM FEW020 13/11 A3008 RMK AO2
KDVO 020855Z AUTO 00000KT 10SM CLR 12/11 A3008 RMK AO2
KDVO 020835Z AUTO 10SM CLR 12/10 A3009 RMK AO2
KDVO 020815Z AUTO 00000KT 10SM CLR 12/10 A3009 RMK AO2
KDVO 020755Z AUTO 00000KT 10SM CLR 12/10 A3009 RMK AO2
KDVO 020735Z AUTO 00000KT 10SM CLR 12/10 A3010 RMK AO2
KDVO 020715Z AUTO 00000KT 10SM CLR 14/11 A3009 RMK AO2
KDVO 020655Z AUTO 00000KT 10SM CLR 13/10 A3009 RMK AO2
KDVO 020635Z AUTO 00000KT 10SM CLR 14/11 A3008 RMK AO2
KDVO 020615Z AUTO 00000KT 10SM CLR 14/11 A3008 RMK AO2
KDVO 020555Z AUTO 00000KT 10SM CLR 15/11 A3008 RMK AO2
KDVO 020535Z AUTO 00000KT 10SM CLR 15/11 A3008 RMK AO2
KDVO 020515Z AUTO 00000KT 10SM CLR 15/11 A3008 RMK AO2
KDVO 020455Z AUTO 34004KT 10SM CLR 15/11 A3007 RMK AO2
KDVO 020435Z AUTO 10005KT 10SM CLR 16/11 A3007 RMK AO2
KDVO 020415Z AUTO 07007KT 10SM CLR 17/11 A3006 RMK AO2
KDVO 020355Z AUTO 11004KT 10SM CLR 18/11 A3006 RMK AO2
KDVO 020335Z AUTO VRB04G10KT 10SM CLR 18/11 A3005 RMK AO2
KDVO 020315Z AUTO 22010KT 10SM CLR 19/11 A3004 RMK AO2
KDVO 020255Z AUTO 24008G13KT 10SM CLR 20/11 A3004 RMK AO2
KDVO 020235Z AUTO 23009G15KT 10SM CLR 21/11 A3003 RMK AO2
KDVO 020215Z AUTO VRB06G19KT 10SM CLR 22/11 A3003 RMK AO2
KDVO 020155Z AUTO 24006KT 10SM CLR 24/11 A3003 RMK AO2
KDVO 020135Z AUTO 25007G14KT 10SM CLR 23/11 A3002 RMK AO2
KDVO 020115Z AUTO 24012KT 10SM CLR 24/10 A3002 RMK AO2
KDVO 020055Z AUTO 25009KT 10SM CLR 26/10 A3002 RMK AO2
KDVO 020035Z AUTO VRB04G12KT 10SM CLR 26/11 A3002 RMK AO2
KDVO 020015Z AUTO 31013G24KT 260V030 10SM CLR 26/12 A3002 RMK AO2
KDVO 012355Z AUTO 33013G22KT 220V020 10SM CLR 27/12 A3001 RMK AO2
KDVO 012335Z AUTO 36017G24KT 10SM CLR 27/12 A3001 RMK AO2
KDVO 012315Z AUTO 01014G22KT 10SM CLR 27/13 A3002 RMK AO2
KDVO 012255Z AUTO 36015G20KT 10SM CLR 27/13 A3002 RMK AO2
KDVO 012235Z AUTO 35015G20KT 10SM CLR 27/13 A3002 RMK AO2
KDVO 012215Z AUTO 35015G20KT 10SM CLR 28/13 A3002 RMK AO2
KDVO 012155Z AUTO 35017KT 10SM CLR 28/13 A3002 RMK AO2
KDVO 012135Z AUTO 34014KT 10SM CLR 28/13 A3003 RMK AO2
KDVO 012115Z AUTO 36014KT 10SM CLR 29/13 A3003 RMK AO2
KDVO 012055Z AUTO 35011KT 10SM CLR 29/13 A3003 RMK AO2
KDVO 012035Z AUTO 36008G16KT 10SM CLR 28/12 A3004 RMK AO2